createdAt,value
2019-05-11T00:01:23.075Z,8.00
2019-05-11T00:03:51.975Z,6.97
2019-05-11T00:06:20.806Z,8.33
2019-05-11T00:08:49.651Z,8.80
2019-05-11T00:11:18.565Z,10.07
2019-05-11T00:13:47.413Z,8.83
2019-05-11T00:16:19.079Z,9.80
2019-05-11T00:18:46.811Z,7.37
2019-05-11T00:21:15.654Z,7.07
2019-05-11T00:23:44.864Z,6.77
2019-05-11T00:26:13.744Z,6.00
2019-05-11T00:28:42.667Z,6.43
2019-05-11T00:31:11.890Z,6.40
2019-05-11T00:33:40.848Z,7.07
2019-05-11T00:36:09.840Z,5.23
2019-05-11T00:38:38.669Z,7.40
2019-05-11T00:41:07.517Z,5.43
2019-05-11T00:43:36.350Z,5.53
2019-05-11T00:46:05.360Z,6.00
2019-05-11T00:48:34.524Z,9.70
2019-05-11T00:51:03.436Z,5.27
2019-05-11T00:53:32.660Z,6.87
2019-05-11T00:56:01.687Z,8.30
2019-05-11T00:58:30.597Z,5.67
2019-05-11T01:00:59.700Z,4.97
2019-05-11T01:03:28.520Z,5.93
2019-05-11T01:05:57.622Z,6.10
2019-05-11T01:08:26.597Z,10.07
2019-05-11T01:10:55.808Z,6.57
2019-05-11T01:13:25.086Z,7.87
2019-05-11T01:15:53.906Z,8.77
2019-05-11T01:18:22.749Z,9.10
2019-05-11T01:20:51.590Z,8.30
2019-05-11T01:23:20.764Z,8.77
2019-05-11T01:25:49.608Z,9.00
2019-05-11T01:28:18.457Z,8.27
2019-05-11T01:30:47.643Z,9.67
2019-05-11T01:33:16.528Z,9.63
2019-05-11T01:35:45.453Z,10.03
2019-05-11T01:38:14.375Z,9.00
2019-05-11T01:40:57.634Z,9.83
2019-05-11T01:43:13.934Z,10.03
2019-05-11T01:45:42.787Z,9.30
2019-05-11T01:48:12.067Z,9.87
2019-05-11T01:50:40.964Z,9.20
2019-05-11T01:53:09.742Z,9.80
2019-05-11T01:55:38.616Z,10.70
2019-05-11T01:58:07.453Z,11.23
2019-05-11T02:00:36.644Z,13.03
2019-05-11T02:03:05.521Z,11.93
2019-05-11T02:05:34.737Z,12.30
2019-05-11T02:08:04.089Z,15.83
2019-05-11T02:10:34.188Z,11.43
2019-05-11T02:13:03.552Z,11.80
2019-05-11T02:15:32.691Z,11.37
2019-05-11T02:18:01.506Z,11.70
2019-05-11T02:20:30.720Z,12.17
2019-05-11T02:22:59.596Z,13.47
2019-05-11T02:25:28.497Z,14.87
2019-05-11T02:27:57.349Z,13.07
2019-05-11T02:30:26.342Z,12.27
2019-05-11T02:32:55.487Z,12.50
2019-05-11T02:35:24.752Z,12.70
2019-05-11T02:37:53.602Z,10.93
2019-05-11T02:40:22.678Z,11.23
2019-05-11T02:42:51.906Z,13.53
2019-05-11T02:45:35.175Z,11.73
2019-05-11T02:48:04.049Z,13.30
2019-05-11T02:50:33.911Z,12.10
2019-05-11T02:53:04.132Z,15.73
2019-05-11T02:55:34.638Z,11.50
2019-05-11T02:58:03.726Z,10.60
2019-05-11T03:00:38.406Z,11.67
2019-05-11T03:03:07.334Z,12.53
2019-05-11T03:05:36.291Z,11.03
2019-05-11T03:08:05.554Z,10.33
2019-05-11T03:10:34.519Z,10.33
2019-05-11T03:13:03.806Z,11.20
2019-05-11T03:15:33.036Z,10.13
2019-05-11T03:18:01.863Z,8.70
2019-05-11T03:20:30.744Z,8.87
2019-05-11T03:23:00.013Z,11.37
2019-05-11T03:25:28.900Z,10.20
2019-05-11T03:27:58.005Z,12.67
2019-05-11T03:30:26.963Z,10.50
2019-05-11T03:32:55.844Z,10.40
2019-05-11T03:35:24.702Z,13.93
2019-05-11T03:37:53.570Z,11.97
2019-05-11T03:40:22.569Z,11.27
2019-05-11T03:42:51.709Z,10.60
2019-05-11T03:45:20.610Z,10.63
2019-05-11T03:47:49.436Z,9.47
2019-05-11T03:50:18.404Z,9.70
2019-05-11T03:52:47.278Z,10.50
2019-05-11T03:55:16.591Z,11.00
2019-05-11T03:57:45.544Z,9.90
2019-05-11T04:00:16.039Z,9.10
2019-05-11T04:02:45.190Z,9.27
2019-05-11T04:05:14.419Z,9.07
2019-05-11T04:07:43.773Z,10.17
2019-05-11T04:10:13.608Z,9.00
2019-05-11T04:12:42.485Z,8.93
2019-05-11T04:15:11.670Z,9.30
2019-05-11T04:17:40.457Z,9.53
2019-05-11T04:20:10.194Z,10.30
2019-05-11T04:22:39.051Z,9.63
2019-05-11T04:25:08.363Z,9.37
2019-05-11T04:27:37.147Z,10.03
2019-05-11T04:30:06.442Z,9.67
2019-05-11T04:32:35.637Z,9.30
2019-05-11T04:35:04.725Z,9.23
2019-05-11T04:37:33.599Z,10.97
2019-05-11T04:40:02.556Z,11.57
2019-05-11T04:42:31.718Z,13.13
2019-05-11T04:45:00.577Z,12.27
2019-05-11T04:47:29.667Z,12.70
2019-05-11T04:49:58.981Z,15.83
2019-05-11T04:52:27.777Z,11.43
2019-05-11T04:54:56.677Z,15.53
2019-05-11T04:57:25.712Z,13.30
2019-05-11T04:59:54.532Z,11.60
2019-05-11T05:02:23.408Z,12.83
2019-05-11T05:04:52.245Z,13.10
2019-05-11T05:07:21.385Z,10.67
2019-05-11T05:09:50.181Z,14.67
2019-05-11T05:12:19.293Z,11.53
2019-05-11T05:14:48.172Z,11.00
2019-05-11T05:17:17.065Z,11.83
2019-05-11T05:19:45.864Z,11.23
2019-05-11T05:22:14.641Z,10.40
2019-05-11T05:24:43.539Z,9.07
2019-05-11T05:27:12.608Z,9.90
2019-05-11T05:29:41.628Z,9.60
2019-05-11T05:32:10.614Z,8.17
2019-05-11T05:34:39.400Z,7.83
2019-05-11T05:37:08.185Z,7.70
2019-05-11T05:39:37.066Z,7.10
2019-05-11T05:42:06.163Z,7.83
2019-05-11T05:44:35.550Z,10.13
2019-05-11T05:47:04.841Z,7.37
2019-05-11T05:49:33.673Z,7.73
2019-05-11T05:52:02.535Z,8.70
2019-05-11T05:54:31.406Z,7.20
2019-05-11T05:57:00.625Z,6.83
2019-05-11T05:59:29.418Z,6.87
2019-05-11T06:01:59.562Z,6.90
2019-05-11T06:04:28.716Z,7.23
2019-05-11T06:06:57.613Z,5.83
2019-05-11T06:09:26.396Z,5.83
2019-05-11T06:11:55.285Z,6.10
2019-05-11T06:14:24.409Z,6.70
2019-05-11T06:16:53.584Z,6.23
2019-05-11T06:19:22.458Z,5.67
2019-05-11T06:21:51.408Z,7.03
2019-05-11T06:24:20.241Z,5.83
2019-05-11T06:26:49.096Z,6.77
2019-05-11T06:29:21.527Z,5.90
2019-05-11T06:31:48.501Z,5.57
2019-05-11T06:34:17.370Z,5.67
2019-05-11T06:36:46.194Z,4.40
2019-05-11T06:39:15.090Z,6.62
2019-05-11T06:41:43.889Z,4.92
2019-05-11T06:44:12.840Z,4.25
2019-05-11T06:46:41.654Z,4.05
2019-05-11T06:49:10.455Z,4.08
2019-05-11T06:51:40.615Z,5.05
2019-05-11T06:54:10.042Z,3.77
2019-05-11T06:56:38.863Z,4.25
2019-05-11T06:59:07.670Z,3.80
2019-05-11T07:01:36.469Z,3.42
2019-05-11T07:04:05.290Z,3.37
2019-05-11T07:06:34.102Z,3.05
2019-05-11T07:09:05.486Z,2.85
2019-05-11T07:11:34.349Z,3.20
2019-05-11T07:14:19.264Z,4.12
2019-05-11T07:16:33.672Z,2.77
2019-05-11T07:19:02.457Z,2.72
2019-05-11T07:21:31.397Z,5.20
2019-05-11T07:24:00.310Z,2.62
2019-05-11T07:26:29.182Z,3.33
2019-05-11T07:28:57.990Z,1.90
2019-05-11T07:31:27.280Z,2.95
2019-05-11T07:33:58.601Z,1.77
2019-05-11T07:36:28.226Z,2.83
2019-05-11T07:38:58.134Z,1.95
2019-05-11T07:41:28.078Z,2.77
2019-05-11T07:43:59.019Z,2.25
2019-05-11T07:46:28.797Z,4.50
2019-05-11T07:48:58.579Z,1.22
2019-05-11T07:51:28.751Z,1.92
2019-05-11T07:53:58.013Z,4.42
2019-05-11T07:56:28.543Z,2.05
2019-05-11T07:58:58.209Z,2.45
2019-05-11T08:01:28.249Z,1.70
2019-05-11T08:03:58.610Z,1.32
2019-05-11T08:06:28.534Z,2.87
2019-05-11T08:08:58.815Z,3.25
2019-05-11T08:11:31.177Z,2.27
2019-05-11T08:13:58.643Z,2.62
2019-05-11T08:16:28.523Z,0.82
2019-05-11T08:18:58.934Z,1.17
2019-05-11T08:21:28.607Z,4.80
2019-05-11T08:23:58.745Z,0.70
2019-05-11T08:26:28.288Z,4.95
2019-05-11T08:28:58.049Z,1.45
2019-05-11T08:31:27.909Z,1.27
2019-05-11T08:33:58.317Z,0.70
2019-05-11T08:36:28.915Z,1.10
2019-05-11T08:38:58.709Z,4.60
2019-05-11T08:41:28.108Z,3.55
2019-05-11T08:43:58.701Z,3.40
2019-05-11T08:46:28.151Z,0.88
2019-05-11T08:48:59.366Z,2.83
2019-05-11T08:53:51.000Z,1.22
2019-05-11T08:56:20.745Z,1.30
2019-05-11T08:58:50.195Z,0.75
2019-05-11T09:01:19.713Z,2.10
2019-05-11T09:03:48.550Z,1.95
2019-05-11T09:06:18.045Z,2.40
2019-05-11T09:08:49.340Z,1.85
2019-05-11T09:11:19.213Z,2.65
2019-05-11T09:13:49.048Z,1.00
2019-05-11T09:16:19.189Z,2.02
2019-05-11T09:18:48.801Z,1.85
2019-05-11T09:21:19.033Z,1.20
2019-05-11T09:23:48.757Z,0.72
2019-05-11T09:26:18.406Z,2.72
2019-05-11T09:28:48.114Z,3.52
2019-05-11T09:31:18.873Z,2.08
2019-05-11T09:33:48.704Z,1.87
2019-05-11T09:36:18.327Z,2.20
2019-05-11T09:38:48.989Z,0.85
2019-05-11T09:41:20.996Z,3.12
2019-05-11T09:43:50.095Z,1.47
2019-05-11T09:46:19.489Z,1.77
2019-05-11T09:48:48.716Z,2.72
2019-05-11T09:51:18.474Z,1.85
2019-05-11T09:53:48.501Z,1.75
2019-05-11T09:56:18.312Z,2.85
2019-05-11T09:58:48.085Z,0.55
2019-05-11T10:01:20.191Z,1.00
2019-05-11T10:03:49.093Z,5.03
2019-05-11T10:06:19.199Z,2.87
2019-05-11T10:08:48.887Z,1.75
2019-05-11T10:11:18.977Z,0.80
2019-05-11T10:13:48.224Z,6.00
2019-05-11T10:16:17.878Z,0.28
2019-05-11T10:18:49.156Z,0.88
2019-05-11T10:21:18.853Z,0.65
2019-05-11T10:23:48.876Z,2.55
2019-05-11T10:26:18.771Z,0.50
2019-05-11T10:28:48.312Z,2.02
2019-05-11T10:31:18.223Z,0.72
2019-05-11T10:33:48.950Z,0.23
2019-05-11T10:36:19.141Z,2.60
2019-05-11T10:38:49.092Z,0.50
2019-05-11T10:41:18.860Z,1.95
2019-05-11T10:43:48.863Z,1.02
2019-05-11T10:46:22.915Z,1.15
2019-05-11T10:48:48.712Z,0.68
2019-05-11T10:51:18.447Z,4.33
2019-05-11T10:53:51.267Z,1.07
2019-05-11T10:56:18.546Z,0.57
2019-05-11T10:58:48.238Z,0.80
2019-05-11T11:01:18.301Z,0.90
2019-05-11T11:03:48.523Z,1.67
2019-05-11T11:06:18.839Z,0.53
2019-05-11T11:08:48.740Z,2.10
2019-05-11T11:11:18.657Z,1.12
2019-05-11T11:13:48.141Z,3.30
2019-05-11T11:16:32.761Z,1.77
2019-05-11T11:18:48.556Z,0.55
2019-05-11T11:21:22.660Z,1.07
2019-05-11T11:23:49.689Z,1.17
2019-05-11T11:26:19.460Z,1.07
2019-05-11T11:28:48.288Z,0.65
2019-05-11T11:31:18.641Z,1.57
2019-05-11T11:33:48.888Z,2.05
2019-05-11T11:36:18.137Z,2.05
2019-05-11T11:38:47.777Z,0.65
2019-05-11T11:41:18.530Z,2.37
2019-05-11T11:43:48.276Z,0.62
2019-05-11T11:46:18.788Z,1.47
2019-05-11T11:48:48.799Z,1.45
2019-05-11T11:51:18.776Z,0.95
2019-05-11T11:53:48.498Z,1.98
2019-05-11T11:56:19.213Z,1.32
2019-05-11T11:58:48.896Z,3.85
2019-05-11T12:01:18.961Z,2.33
2019-05-11T12:03:48.816Z,0.72
2019-05-11T12:06:18.440Z,2.77
2019-05-11T12:08:49.616Z,1.25
2019-05-11T12:11:18.930Z,2.75
2019-05-11T12:13:47.959Z,0.75
2019-05-11T12:16:18.134Z,1.02
2019-05-11T12:18:48.703Z,6.92
2019-05-11T12:21:18.719Z,2.27
2019-05-11T12:23:48.666Z,4.50
2019-05-11T12:26:17.995Z,1.20
2019-05-11T12:28:48.978Z,1.22
2019-05-11T12:31:18.676Z,1.80
2019-05-11T12:33:48.454Z,1.22
2019-05-11T12:36:18.818Z,0.72
2019-05-11T12:38:48.884Z,1.27
2019-05-11T12:41:19.232Z,5.70
2019-05-11T12:43:48.993Z,0.35
2019-05-11T12:46:18.831Z,1.65
2019-05-11T12:48:48.601Z,1.05
2019-05-11T12:51:18.550Z,0.55
2019-05-11T12:53:48.152Z,3.65
2019-05-11T12:56:19.002Z,0.60
2019-05-11T12:58:49.187Z,1.07
2019-05-11T13:01:18.998Z,1.65
2019-05-11T13:03:49.341Z,1.95
2019-05-11T13:06:19.285Z,0.25
2019-05-11T13:08:48.470Z,1.10
2019-05-11T13:11:18.659Z,0.33
2019-05-11T13:13:48.447Z,0.78
2019-05-11T13:16:18.585Z,1.85
2019-05-11T13:18:48.738Z,1.27
2019-05-11T13:21:18.450Z,2.12
2019-05-11T13:23:48.908Z,2.60
2019-05-11T13:26:18.208Z,0.80
2019-05-11T13:28:48.461Z,1.80
2019-05-11T13:31:18.709Z,0.42
2019-05-11T13:33:48.217Z,1.10
2019-05-11T13:36:18.614Z,1.17
2019-05-11T13:38:48.553Z,6.75
2019-05-11T13:41:18.725Z,1.50
2019-05-11T13:43:48.562Z,2.83
2019-05-11T13:46:18.928Z,3.35
2019-05-11T13:48:47.923Z,2.62
2019-05-11T13:51:18.232Z,0.77
2019-05-11T13:53:48.153Z,4.35
2019-05-11T13:56:18.290Z,0.60
2019-05-11T13:58:48.716Z,1.20
2019-05-11T14:01:18.622Z,2.25
2019-05-11T14:03:48.332Z,2.95
2019-05-11T14:06:18.485Z,1.67
2019-05-11T14:08:48.230Z,1.87
2019-05-11T14:11:18.298Z,0.80
2019-05-11T14:13:48.180Z,4.08
2019-05-11T14:18:48.790Z,1.87
2019-05-11T14:21:18.685Z,2.25
2019-05-11T14:23:48.375Z,2.70
2019-05-11T14:26:19.351Z,1.20
2019-05-11T14:28:48.482Z,0.95
2019-05-11T14:31:18.932Z,1.32
2019-05-11T14:32:21.185Z,2.92
2019-05-11T14:33:48.838Z,2.05
2019-05-11T14:36:18.671Z,1.52
2019-05-11T14:38:48.781Z,1.72
2019-05-11T14:41:18.413Z,0.85
2019-05-11T14:43:49.025Z,1.12
2019-05-11T14:46:18.271Z,2.77
2019-05-11T14:48:48.067Z,2.35
2019-05-11T14:51:18.032Z,2.83
2019-05-11T14:53:48.246Z,0.30
2019-05-11T14:56:19.068Z,1.55
2019-05-11T14:58:49.402Z,0.80
2019-05-11T15:01:18.641Z,0.45
2019-05-11T15:03:48.568Z,0.30
2019-05-11T15:06:18.947Z,0.42
2019-05-11T15:08:48.360Z,0.20
2019-05-11T15:11:28.066Z,0.20
2019-05-11T15:14:02.380Z,0.20
2019-05-11T15:16:31.269Z,0.30
2019-05-11T15:19:00.209Z,1.77
2019-05-11T15:21:29.101Z,0.30
2019-05-11T15:23:58.136Z,1.75
2019-05-11T15:26:27.761Z,0.80
2019-05-11T15:28:58.541Z,0.20
2019-05-11T15:31:27.923Z,0.30
2019-05-11T15:33:57.715Z,1.10
2019-05-11T15:36:28.535Z,0.40
2019-05-11T15:38:58.311Z,0.78
2019-05-11T15:41:28.105Z,0.30
2019-05-11T15:43:57.928Z,0.50
2019-05-11T15:46:28.243Z,0.20
2019-05-11T15:49:03.128Z,0.40
2019-05-11T15:51:29.099Z,0.85
2019-05-11T15:53:58.727Z,0.65
2019-05-11T15:56:28.047Z,0.30
2019-05-11T15:58:57.832Z,0.35
2019-05-11T16:01:28.929Z,0.20
2019-05-11T16:03:58.337Z,0.35
2019-05-11T16:06:28.466Z,0.30
2019-05-11T16:08:58.649Z,0.57
2019-05-11T16:11:28.338Z,0.20
2019-05-11T16:13:58.662Z,0.20
2019-05-11T16:16:28.124Z,0.17
2019-05-11T16:19:10.640Z,1.65
2019-05-11T16:21:28.557Z,0.20
2019-05-11T16:23:58.520Z,2.07
2019-05-11T16:26:28.122Z,0.20
2019-05-11T16:28:58.167Z,0.50
2019-05-11T16:31:28.492Z,0.20
2019-05-11T16:33:58.878Z,1.77
2019-05-11T16:36:28.478Z,0.30
2019-05-11T16:38:57.360Z,0.30
2019-05-11T16:41:28.905Z,0.40
2019-05-11T16:43:58.594Z,0.57
2019-05-11T16:46:28.367Z,0.30
2019-05-11T16:48:57.996Z,0.37
2019-05-11T16:51:46.022Z,0.50
2019-05-11T16:54:15.057Z,0.40
2019-05-11T16:56:43.824Z,0.40
2019-05-11T16:59:12.602Z,0.87
2019-05-11T17:01:41.413Z,0.40
2019-05-11T17:04:10.205Z,1.40
2019-05-11T17:06:39.331Z,0.70
2019-05-11T17:09:08.796Z,1.43
2019-05-11T17:11:38.413Z,0.73
2019-05-11T17:14:08.474Z,0.63
2019-05-11T17:16:38.498Z,2.13
2019-05-11T17:19:08.044Z,0.57
2019-05-11T17:21:38.028Z,0.90
2019-05-11T17:24:07.344Z,1.63
2019-05-11T17:26:38.527Z,1.53
2019-05-11T17:29:06.962Z,1.77
2019-05-11T17:31:38.016Z,1.13
2019-05-11T17:34:09.015Z,2.07
2019-05-11T17:36:38.331Z,1.80
2019-05-11T17:39:08.308Z,1.73
2019-05-11T17:41:38.669Z,2.00
2019-05-11T17:44:08.187Z,0.80
2019-05-11T17:46:40.057Z,0.63
2019-05-11T17:49:09.360Z,0.50
2019-05-11T17:51:38.453Z,1.33
2019-05-11T17:54:07.890Z,1.77
2019-05-11T17:56:38.758Z,1.27
2019-05-11T17:59:08.128Z,1.97
2019-05-11T18:01:37.057Z,0.93
2019-05-11T18:04:07.969Z,0.80
2019-05-11T18:06:38.440Z,1.47
2019-05-11T18:09:08.419Z,0.77
2019-05-11T18:11:38.200Z,0.70
2019-05-11T18:14:08.343Z,0.60
2019-05-11T18:16:37.470Z,1.47
2019-05-11T18:19:08.436Z,0.70
2019-05-11T18:21:38.735Z,0.63
2019-05-11T18:24:09.071Z,1.50
2019-05-11T18:26:38.433Z,1.43
2019-05-11T18:29:07.745Z,0.70
2019-05-11T18:31:38.377Z,1.53
2019-05-11T18:34:08.973Z,3.83
2019-05-11T18:36:38.280Z,4.87
2019-05-11T18:39:08.301Z,3.00
2019-05-11T18:41:39.092Z,3.07
2019-05-11T18:44:08.313Z,2.80
2019-05-11T18:46:38.882Z,2.43
2019-05-11T18:49:08.641Z,2.90
2019-05-11T18:51:37.982Z,4.50
2019-05-11T18:54:09.370Z,3.07
2019-05-11T18:56:38.296Z,2.43
2019-05-11T18:59:08.859Z,2.80
2019-05-11T19:01:38.282Z,3.23
2019-05-11T19:04:07.813Z,3.70
2019-05-11T19:06:37.925Z,3.57
2019-05-11T19:09:08.003Z,2.93
2019-05-11T19:11:38.289Z,2.97
2019-05-11T19:14:08.587Z,4.00
2019-05-11T19:16:39.028Z,3.77
2019-05-11T19:19:08.382Z,3.97
2019-05-11T19:21:37.545Z,4.60
2019-05-11T19:24:09.205Z,3.90
2019-05-11T19:26:36.977Z,3.70
2019-05-11T19:29:05.937Z,4.03
2019-05-11T19:31:34.989Z,3.40
2019-05-11T19:34:03.806Z,3.50
2019-05-11T19:36:32.662Z,3.83
2019-05-11T19:39:01.457Z,3.73
2019-05-11T19:41:30.614Z,3.87
2019-05-11T19:43:59.584Z,3.93
2019-05-11T19:46:28.372Z,3.43
2019-05-11T19:48:57.930Z,3.90
2019-05-11T19:51:29.109Z,3.10
2019-05-11T19:53:57.698Z,2.93
2019-05-11T19:56:28.774Z,3.63
2019-05-11T19:58:57.969Z,3.87
2019-05-11T20:01:27.890Z,4.20
2019-05-11T20:03:57.082Z,4.10
2019-05-11T20:06:28.104Z,5.07
2019-05-11T20:08:58.112Z,4.70
2019-05-11T20:11:28.090Z,4.53
2019-05-11T20:13:58.984Z,4.17
2019-05-11T20:16:27.959Z,4.43
2019-05-11T20:18:57.838Z,5.50
2019-05-11T20:21:28.825Z,4.10
2019-05-11T20:23:57.929Z,4.37
2019-05-11T20:26:28.613Z,3.97
2019-05-11T20:28:58.783Z,4.77
2019-05-11T20:31:27.846Z,4.40
2019-05-11T20:33:56.840Z,4.27
2019-05-11T20:36:25.662Z,4.43
2019-05-11T20:38:54.465Z,4.33
2019-05-11T20:41:23.255Z,4.50
2019-05-11T20:43:52.352Z,4.37
2019-05-11T20:46:21.126Z,5.70
2019-05-11T20:48:49.921Z,4.67
2019-05-11T20:51:32.508Z,3.97
2019-05-11T20:53:49.258Z,5.83
2019-05-11T20:56:18.112Z,5.80
2019-05-11T20:58:59.207Z,5.07
2019-05-11T21:01:28.533Z,4.73
2019-05-11T21:03:58.492Z,4.33
2019-05-11T21:06:29.463Z,5.23
2019-05-11T21:08:58.189Z,5.97
2019-05-11T21:11:26.990Z,5.03
2019-05-11T21:13:55.875Z,6.67
2019-05-11T21:16:24.825Z,5.63
2019-05-11T21:18:54.077Z,4.77
2019-05-11T21:21:22.939Z,5.23
2019-05-11T21:23:51.776Z,5.30
2019-05-11T21:26:20.997Z,4.87
2019-05-11T21:28:49.761Z,5.17
2019-05-11T21:31:18.782Z,6.73
2019-05-11T21:33:47.614Z,5.20
2019-05-11T21:36:17.944Z,4.33
2019-05-11T21:38:48.251Z,4.57
2019-05-11T21:41:18.371Z,4.60
2019-05-11T21:43:48.292Z,4.77
2019-05-11T21:46:18.093Z,4.27
2019-05-11T21:48:47.794Z,5.60
2019-05-11T21:51:18.083Z,4.03
2019-05-11T21:53:48.708Z,4.43
2019-05-11T21:56:18.919Z,4.73
2019-05-11T21:58:47.782Z,4.37
2019-05-11T22:01:18.412Z,4.20
2019-05-11T22:03:47.891Z,3.70
2019-05-11T22:06:17.358Z,4.33
2019-05-11T22:08:48.258Z,3.87
2019-05-11T22:11:17.972Z,3.90
2019-05-11T22:13:48.473Z,3.90
2019-05-11T22:16:17.802Z,3.67
2019-05-11T22:18:48.496Z,3.60
2019-05-11T22:21:18.738Z,4.37
2019-05-11T22:23:50.593Z,4.63
2019-05-11T22:26:18.533Z,5.50
2019-05-11T22:28:48.210Z,4.20
2019-05-11T22:31:18.195Z,5.23
2019-05-11T22:33:48.069Z,4.83
2019-05-11T22:36:16.912Z,5.10
2019-05-11T22:38:48.116Z,4.87
2019-05-11T22:41:18.073Z,4.73
2019-05-11T22:43:48.586Z,5.70
2019-05-11T22:46:17.805Z,4.40
2019-05-11T22:48:48.977Z,5.40
2019-05-11T22:51:18.363Z,5.63
2019-05-11T22:53:50.277Z,4.83
2019-05-11T22:56:20.074Z,5.33
2019-05-11T22:58:49.964Z,5.33
2019-05-11T23:01:18.884Z,5.20
2019-05-11T23:03:47.687Z,5.87
2019-05-11T23:06:18.095Z,6.63
2019-05-11T23:08:48.293Z,6.57
2019-05-11T23:11:18.042Z,6.20
2019-05-11T23:13:47.895Z,8.03
2019-05-11T23:16:17.956Z,8.33
2019-05-11T23:18:48.057Z,7.17
2019-05-11T23:21:17.039Z,9.83
2019-05-11T23:23:47.863Z,7.23
2019-05-11T23:26:17.860Z,8.63
2019-05-11T23:28:48.631Z,6.93
2019-05-11T23:31:17.710Z,8.43
2019-05-11T23:33:46.499Z,7.67
2019-05-11T23:36:15.345Z,9.03
2019-05-11T23:38:44.158Z,7.83
2019-05-11T23:41:24.274Z,8.27
2019-05-11T23:43:43.829Z,6.63
2019-05-11T23:46:13.153Z,8.33
2019-05-11T23:48:41.925Z,7.47
2019-05-11T23:51:10.957Z,7.93
2019-05-11T23:53:39.998Z,10.17
2019-05-11T23:56:08.783Z,9.93
2019-05-11T23:58:39.120Z,7.83
